^^

..:: Storico WU ::..




Lo storico viene creato da WUnderground con i dati che la stazione Meteomincio invia al loro server. L' aggiornamento viene fatto ogni 5 minuti circa, tuttavia possono esserci intervalli pi¨ ampi a causa di errori, interruzioni di servizio o problemi nell' invio tramite FTP.


Storico stazione MeteoMincio
Giorno Sommario per Settembre 29, 2022 Unità:  Entrambi    Inglese   Metrico
Giorno Settimana Mese Anno
  Max: Min: Media:
Temperatura: 75.6 °F /  24.2 °C 52.2 °F /  11.2 °C 61.9 °F /  16.6 °C
Dew Point: 61.7 °F /  16.5 °C 49.8 °F /  9.9 °C 54.5 °F /  12.5 °C
Umidità: 93% 45% 78%
Velocità vento: 12.9mph /  20.7km/h - 3.5mph /  5.6km/h
Raffica: 23mph /  37km/h - -
Direzione- - ESE
Pressione: 29.6 in /  1001.6 hPa 29.4 in /  996.8 hPa -
Precipitazioni: 0 in /  0.0 mm    
 
 
Tabulato Dati per Settembre 29, 2022
Ora Temperatura Dew Point Pressione Direzione Velocità vento Raffica Umidità Intensità pioggia (oraria) Info solare Situazione
00:04 56.7 °F /  13.7 °C 52.2 °F /  11.2 °C 29.5in /  997.8hPa NE 0.1mph /  0.1km/h 2mph /  3.2km/h 85% 0in /  0.0mm 0 W/m2
00:09 56.7 °F /  13.7 °C 52.2 °F /  11.2 °C 29.5in /  997.9hPa NE 0.1mph /  0.1km/h 1.2mph /  1.9km/h 85% 0in /  0.0mm 0 W/m2
00:14 56.5 °F /  13.6 °C 52 °F /  11.1 °C 29.5in /  997.9hPa NE 0.2mph /  0.3km/h 1.2mph /  1.9km/h 85.2% 0in /  0.0mm 0 W/m2
00:19 56.1 °F /  13.4 °C 51.6 °F /  10.9 °C 29.5in /  997.9hPa Calm   1mph /  1.6km/h 85.1% 0in /  0.0mm 0 W/m2
00:24 55.9 °F /  13.3 °C 51.8 °F /  11 °C 29.5in /  997.9hPa Calm     86% 0in /  0.0mm 0 W/m2
00:29 55.9 °F /  13.3 °C 51.8 °F /  11 °C 29.5in /  997.8hPa NE 0.6mph /  1km/h 2.3mph /  3.7km/h 86% 0in /  0.0mm 0 W/m2
00:34 55.6 °F /  13.1 °C 51.8 °F /  11 °C 29.5in /  997.7hPa NE 1.4mph /  2.2km/h 2.3mph /  3.7km/h 86.7% 0in /  0.0mm 0 W/m2
00:39 55.8 °F /  13.2 °C 52 °F /  11.1 °C 29.5in /  997.8hPa NE 0.9mph /  1.5km/h 2.3mph /  3.7km/h 87% 0in /  0.0mm 0 W/m2
00:44 55.6 °F /  13.1 °C 51.8 °F /  11 °C 29.5in /  997.9hPa Calm   2mph /  3.2km/h 87% 0in /  0.0mm 0 W/m2
00:49 55.4 °F /  13 °C 51.6 °F /  10.9 °C 29.5in /  997.9hPa NNE 0.3mph /  0.5km/h 1.2mph /  1.9km/h 87% 0in /  0.0mm 0 W/m2
00:54 55.6 °F /  13.1 °C 51.6 °F /  10.9 °C 29.5in /  997.8hPa NNE 0.4mph /  0.6km/h 2mph /  3.2km/h 87% 0in /  0.0mm 0 W/m2
00:59 55.6 °F /  13.1 °C 51.8 °F /  11 °C 29.5in /  997.8hPa NNE 0.2mph /  0.3km/h 1.2mph /  1.9km/h 86.7% 0in /  0.0mm 0 W/m2
01:04 55.4 °F /  13 °C 51.4 °F /  10.8 °C 29.5in /  997.7hPa Calm   1.2mph /  1.9km/h 86.3% 0in /  0.0mm 0 W/m2
01:09 54.9 °F /  12.7 °C 50.9 °F /  10.5 °C 29.5in /  997.8hPa Calm     86.5% 0in /  0.0mm 0 W/m2
01:14 54.3 °F /  12.4 °C 50.5 °F /  10.3 °C 29.5in /  997.8hPa Calm     87.2% 0in /  0.0mm 0 W/m2
01:19 54 °F /  12.2 °C 50.4 °F /  10.2 °C 29.5in /  997.8hPa West 0.2mph /  0.3km/h 3mph /  4.8km/h 88% 0in /  0.0mm 0 W/m2
01:24 53.4 °F /  11.9 °C 50 °F /  10 °C 29.5in /  997.8hPa West 1.3mph /  2.1km/h 3.5mph /  5.6km/h 88.5% 0in /  0.0mm 0 W/m2
01:29 53.4 °F /  11.9 °C 50.2 °F /  10.1 °C 29.5in /  997.8hPa West 1.3mph /  2.1km/h 3mph /  4.8km/h 89% 0in /  0.0mm 0 W/m2
01:34 53.4 °F /  11.9 °C 50.2 °F /  10.1 °C 29.5in /  997.8hPa West 1.4mph /  2.2km/h 2.3mph /  3.7km/h 89% 0in /  0.0mm 0 W/m2
01:39 53.6 °F /  12 °C 50.4 °F /  10.2 °C 29.5in /  997.8hPa West 1.2mph /  1.9km/h 2.3mph /  3.7km/h 89% 0in /  0.0mm 0 W/m2
01:44 54 °F /  12.2 °C 50.7 °F /  10.4 °C 29.5in /  997.8hPa West 0.4mph /  0.7km/h 2.3mph /  3.7km/h 89% 0in /  0.0mm 0 W/m2
01:49 54.1 °F /  12.3 °C 50.9 °F /  10.5 °C 29.5in /  997.7hPa Calm   1mph /  1.6km/h 89% 0in /  0.0mm 0 W/m2
01:54 54.1 °F /  12.3 °C 50.7 °F /  10.4 °C 29.5in /  997.7hPa Calm     88.7% 0in /  0.0mm 0 W/m2
01:59 54 °F /  12.2 °C 50.9 °F /  10.5 °C 29.5in /  997.8hPa Calm     89% 0in /  0.0mm 0 W/m2
02:04 53.8 °F /  12.1 °C 50.5 °F /  10.3 °C 29.5in /  997.8hPa Calm     89% 0in /  0.0mm 0 W/m2
02:09 53.8 °F /  12.1 °C 50.5 °F /  10.3 °C 29.5in /  997.8hPa West 0.1mph /  0.1km/h 2mph /  3.2km/h 89% 0in /  0.0mm 0 W/m2
02:14 53.4 °F /  11.9 °C 50.2 °F /  10.1 °C 29.5in /  997.8hPa West 0.9mph /  1.5km/h 2.3mph /  3.7km/h 89% 0in /  0.0mm 0 W/m2
02:19 53.4 °F /  11.9 °C 50.2 °F /  10.1 °C 29.5in /  997.9hPa West 1.5mph /  2.4km/h 2.3mph /  3.7km/h 89% 0in /  0.0mm 0 W/m2
02:24 53.4 °F /  11.9 °C 50.4 °F /  10.2 °C 29.5in /  997.9hPa West 0.9mph /  1.4km/h 2.3mph /  3.7km/h 89.6% 0in /  0.0mm 0 W/m2
02:29 53.6 °F /  12 °C 50.5 °F /  10.3 °C 29.5in /  998.1hPa West 0.1mph /  0.2km/h 2mph /  3.2km/h 89.6% 0in /  0.0mm 0 W/m2
02:34 53.6 °F /  12 °C 50.5 °F /  10.3 °C 29.5in /  998.1hPa WSW 0.1mph /  0.2km/h 2.3mph /  3.7km/h 89% 0in /  0.0mm 0 W/m2
02:39 53.6 °F /  12 °C 50.4 °F /  10.2 °C 29.5in /  998.0hPa WSW 1.2mph /  1.9km/h 2.3mph /  3.7km/h 89% 0in /  0.0mm 0 W/m2
02:44 53.4 °F /  11.9 °C 50.4 °F /  10.2 °C 29.5in /  998.0hPa West 1.6mph /  2.5km/h 2.3mph /  3.7km/h 89.5% 0in /  0.0mm 0 W/m2
02:49 53.6 °F /  12 °C 50.5 °F /  10.3 °C 29.5in /  998.0hPa WNW 1.2mph /  2km/h 2.3mph /  3.7km/h 89.8% 0in /  0.0mm 0 W/m2
02:54 53.8 °F /  12.1 °C 50.5 °F /  10.3 °C 29.5in /  998.0hPa WNW 1mph /  1.6km/h 2.3mph /  3.7km/h 89% 0in /  0.0mm 0 W/m2
02:59 53.8 °F /  12.1 °C 50.7 °F /  10.4 °C 29.5in /  998.0hPa NW 0.5mph /  0.8km/h 2.3mph /  3.7km/h 89% 0in /  0.0mm 0 W/m2
03:04 53.8 °F /  12.1 °C 50.9 °F /  10.5 °C 29.5in /  998.0hPa NW 0.6mph /  1km/h 2.3mph /  3.7km/h 89.9% 0in /  0.0mm 0 W/m2
03:09 53.8 °F /  12.1 °C 50.7 °F /  10.4 °C 29.5in /  998.0hPa NW 0.4mph /  0.6km/h 1.2mph /  1.9km/h 89% 0in /  0.0mm 0 W/m2
03:14 54 °F /  12.2 °C 50.9 °F /  10.5 °C 29.5in /  997.9hPa NW 0.1mph /  0.2km/h 1.2mph /  1.9km/h 89.7% 0in /  0.0mm 0 W/m2
03:19 53.8 °F /  12.1 °C 51.3 °F /  10.7 °C 29.5in /  997.8hPa Calm   1mph /  1.6km/h 91% 0in /  0.0mm 0 W/m2
03:24 54 °F /  12.2 °C 50.7 °F /  10.4 °C 29.5in /  997.8hPa Calm     89% 0in /  0.0mm 0 W/m2
03:29 54 °F /  12.2 °C 51.3 °F /  10.7 °C 29.5in /  997.7hPa Calm     90.7% 0in /  0.0mm 0 W/m2
03:34 53.6 °F /  12 °C 50.5 °F /  10.3 °C 29.5in /  997.7hPa Calm   1mph /  1.6km/h 89.3% 0in /  0.0mm 0 W/m2
03:39 53.4 °F /  11.9 °C 50.4 °F /  10.2 °C 29.5in /  997.8hPa SSW 0.2mph /  0.3km/h 1.2mph /  1.9km/h 90% 0in /  0.0mm 0 W/m2
03:44 53.2 °F /  11.8 °C 50.4 °F /  10.2 °C 29.5in /  997.8hPa SSW 0.5mph /  0.8km/h 1.2mph /  1.9km/h 90% 0in /  0.0mm 0 W/m2
03:49 53.1 °F /  11.7 °C 50.2 °F /  10.1 °C 29.5in /  997.8hPa SSW 0.4mph /  0.7km/h 1.2mph /  1.9km/h 90% 0in /  0.0mm 0 W/m2
03:54 53.1 °F /  11.7 °C 50.2 °F /  10.1 °C 29.5in /  997.8hPa SSW 0.1mph /  0.1km/h 1.2mph /  1.9km/h 90.1% 0in /  0.0mm 0 W/m2
03:59 53.1 °F /  11.7 °C 50.2 °F /  10.1 °C 29.5in /  997.9hPa Calm     90% 0in /  0.0mm 0 W/m2
04:04 53.1 °F /  11.7 °C 50.2 °F /  10.1 °C 29.5in /  997.9hPa Calm     90% 0in /  0.0mm 0 W/m2
04:08 53.2 °F /  11.8 °C 50.2 °F /  10.1 °C 29.5in /  997.9hPa Calm     90% 0in /  0.0mm 0 W/m2
04:14 53.2 °F /  11.8 °C 50.4 °F /  10.2 °C 29.5in /  997.9hPa Calm     90% 0in /  0.0mm 0 W/m2
04:16 53.2 °F /  11.8 °C 50.4 °F /  10.2 °C 29.5in /  997.8hPa Calm     90% 0in /  0.0mm 0 W/m2
04:24 53.2 °F /  11.8 °C 50.4 °F /  10.2 °C 29.5in /  997.8hPa Calm     90% 0in /  0.0mm 0 W/m2
04:28 53.1 °F /  11.7 °C 50.2 °F /  10.1 °C 29.5in /  997.8hPa Calm     90.6% 0in /  0.0mm 0 W/m2
04:33 52.9 °F /  11.6 °C 50.2 °F /  10.1 °C 29.5in /  997.8hPa Calm     91% 0in /  0.0mm 0 W/m2
04:38 52.9 °F /  11.6 °C 50.2 °F /  10.1 °C 29.5in /  997.8hPa Calm     91% 0in /  0.0mm 0 W/m2
04:43 52.7 °F /  11.5 °C 50.2 °F /  10.1 °C 29.5in /  997.8hPa Calm     91% 0in /  0.0mm 0 W/m2
04:49 52.5 °F /  11.4 °C 50 °F /  10 °C 29.5in /  997.7hPa SSE 0.4mph /  0.7km/h 2.3mph /  3.7km/h 91% 0in /  0.0mm 0 W/m2
04:53 52.5 °F /  11.4 °C 50 °F /  10 °C 29.5in /  997.8hPa SSE 0.9mph /  1.4km/h 2.3mph /  3.7km/h 91% 0in /  0.0mm 0 W/m2
04:58 52.5 °F /  11.4 °C 49.8 °F /  9.9 °C 29.5in /  997.8hPa SSE 0.7mph /  1.1km/h 2.3mph /  3.7km/h 91% 0in /  0.0mm 0 W/m2
05:03 52.5 °F /  11.4 °C 50.2 °F /  10.1 °C 29.5in /  997.8hPa SE 0.1mph /  0.2km/h 2.3mph /  3.7km/h 91.9% 0in /  0.0mm 0 W/m2
05:09 52.5 °F /  11.4 °C 50.2 °F /  10.1 °C 29.5in /  997.8hPa Calm     92% 0in /  0.0mm 0 W/m2
05:14 52.3 °F /  11.3 °C 50.2 °F /  10.1 °C 29.5in /  997.8hPa ENE 0.1mph /  0.1km/h 1.2mph /  1.9km/h 92% 0in /  0.0mm 0 W/m2
05:19 52.3 °F /  11.3 °C 50.2 °F /  10.1 °C 29.5in /  997.8hPa East 0.4mph /  0.7km/h 2.3mph /  3.7km/h 92% 0in /  0.0mm 0 W/m2
05:24 52.2 °F /  11.2 °C 50 °F /  10 °C 29.5in /  997.7hPa East 1.3mph /  2.1km/h 3.5mph /  5.6km/h 92% 0in /  0.0mm 0 W/m2
05:29 52.2 °F /  11.2 °C 49.8 °F /  9.9 °C 29.5in /  997.6hPa ENE 1.7mph /  2.8km/h 3.5mph /  5.6km/h 92% 0in /  0.0mm 0 W/m2
05:34 52.3 °F /  11.3 °C 50.2 °F /  10.1 °C 29.5in /  997.5hPa NE 1.3mph /  2.1km/h 3.5mph /  5.6km/h 92.6% 0in /  0.0mm 0 W/m2
05:39 52.3 °F /  11.3 °C 50.4 °F /  10.2 °C 29.5in /  997.5hPa NNE 0.9mph /  1.4km/h 2.3mph /  3.7km/h 93% 0in /  0.0mm 0 W/m2
05:44 52.7 °F /  11.5 °C 50.7 °F /  10.4 °C 29.5in /  997.6hPa NE 0.2mph /  0.4km/h 2.3mph /  3.7km/h 92.8% 0in /  0.0mm 0 W/m2
05:49 52.9 °F /  11.6 °C 50.5 °F /  10.3 °C 29.5in /  997.7hPa Calm   2mph /  3.2km/h 92% 0in /  0.0mm 0 W/m2
05:54 52.9 °F /  11.6 °C 50.5 °F /  10.3 °C 29.5in /  997.6hPa Calm     92% 0in /  0.0mm 0 W/m2
05:59 52.7 °F /  11.5 °C 50.4 °F /  10.2 °C 29.5in /  997.6hPa Calm     92% 0in /  0.0mm 0 W/m2
06:04 52.9 °F /  11.6 °C 50.5 °F /  10.3 °C 29.5in /  997.7hPa Calm     92% 0in /  0.0mm 0 W/m2
06:09 52.9 °F /  11.6 °C 50.5 °F /  10.3 °C 29.5in /  997.6hPa Calm   2mph /  3.2km/h 92% 0in /  0.0mm 0 W/m2
06:14 52.9 °F /  11.6 °C 50.5 °F /  10.3 °C 29.5in /  997.7hPa NE 0.2mph /  0.3km/h 2mph /  3.2km/h 92.3% 0in /  0.0mm 0 W/m2
06:19 53.2 °F /  11.8 °C 51.3 °F /  10.7 °C 29.5in /  997.7hPa NE 0.2mph /  0.4km/h 1.2mph /  1.9km/h 93% 0in /  0.0mm 0 W/m2
06:24 53.4 °F /  11.9 °C 51.3 °F /  10.7 °C 29.5in /  997.8hPa NE 0.4mph /  0.7km/h 1.2mph /  1.9km/h 92.7% 0in /  0.0mm 0 W/m2
06:29 53.6 °F /  12 °C 51.4 °F /  10.8 °C 29.5in /  997.9hPa NE 0.2mph /  0.3km/h 1.2mph /  1.9km/h 92.4% 0in /  0.0mm 0 W/m2
06:34 53.8 °F /  12.1 °C 51.6 °F /  10.9 °C 29.5in /  997.9hPa East 0.9mph /  1.4km/h 2.3mph /  3.7km/h 92.3% 0in /  0.0mm 0 W/m2
06:39 54 °F /  12.2 °C 51.6 °F /  10.9 °C 29.5in /  997.8hPa SE 1.1mph /  1.7km/h 2.3mph /  3.7km/h 92% 0in /  0.0mm 0 W/m2
06:44 54 °F /  12.2 °C 51.6 °F /  10.9 °C 29.5in /  997.9hPa SE 0.2mph /  0.3km/h 2.3mph /  3.7km/h 92% 0in /  0.0mm 0 W/m2
06:49 54 °F /  12.2 °C 51.6 °F /  10.9 °C 29.5in /  997.9hPa Calm   2mph /  3.2km/h 92% 0in /  0.0mm 0 W/m2
06:54 54 °F /  12.2 °C 51.6 °F /  10.9 °C 29.5in /  997.9hPa Calm     92% 0in /  0.0mm 0 W/m2
06:59 54 °F /  12.2 °C 51.6 °F /  10.9 °C 29.5in /  998.0hPa Calm     92% 0in /  0.0mm 0 W/m2
07:04 54.3 °F /  12.4 °C 52.2 °F /  11.2 °C 29.5in /  998.0hPa Calm     92.9% 0in /  0.0mm 0 W/m2
07:09 54.5 °F /  12.5 °C 52.3 °F /  11.3 °C 29.5in /  998.0hPa Calm     92.2% 0in /  0.0mm 0 W/m2
07:14 54.7 °F /  12.6 °C 52.3 °F /  11.3 °C 29.5in /  998.0hPa Calm   1.2mph /  1.9km/h 92% 0in /  0.0mm 0 W/m2
07:17 54.7 °F /  12.6 °C 52.3 °F /  11.3 °C 29.5in /  998.0hPa SE 0.1mph /  0.2km/h 1.2mph /  1.9km/h 92% 0in /  0.0mm 0 W/m2
07:24 54.7 °F /  12.6 °C 52.3 °F /  11.3 °C 29.5in /  998.0hPa NNE 0.1mph /  0.1km/h 1.2mph /  1.9km/h 92% 0in /  0.0mm 5 W/m2
07:29 54.7 °F /  12.6 °C 52.3 °F /  11.3 °C 29.5in /  998.0hPa NE 0.2mph /  0.4km/h 2.3mph /  3.7km/h 92% 0in /  0.0mm 7 W/m2
07:34 54.7 °F /  12.6 °C 52.3 °F /  11.3 °C 29.5in /  998.1hPa NE 0.6mph /  1km/h 2.3mph /  3.7km/h 92% 0in /  0.0mm 12 W/m2
07:39 54.7 °F /  12.6 °C 52.3 °F /  11.3 °C 29.5in /  998.1hPa Calm   2mph /  3.2km/h 92% 0in /  0.0mm 30 W/m2
07:44 54.9 °F /  12.7 °C 52.5 °F /  11.4 °C 29.5in /  998.1hPa NE 0.4mph /  0.7km/h 2.3mph /  3.7km/h 92% 0in /  0.0mm 28 W/m2
07:49 55 °F /  12.8 °C 52.7 °F /  11.5 °C 29.5in /  998.1hPa ENE 0.9mph /  1.5km/h 3.5mph /  5.6km/h 92% 0in /  0.0mm 30 W/m2
07:54 55.2 °F /  12.9 °C 52.9 °F /  11.6 °C 29.5in /  998.2hPa ENE 1mph /  1.6km/h 3.5mph /  5.6km/h 91.7% 0in /  0.0mm 44 W/m2
07:59 55.6 °F /  13.1 °C 53.1 °F /  11.7 °C 29.5in /  998.2hPa ENE 0.5mph /  0.8km/h 2.3mph /  3.7km/h 91.3% 0in /  0.0mm 58 W/m2
08:04 56.1 °F /  13.4 °C 53.4 °F /  11.9 °C 29.5in /  998.2hPa NNE 0.6mph /  1km/h 3mph /  4.8km/h 91% 0in /  0.0mm 62 W/m2
08:09 56.5 °F /  13.6 °C 53.8 °F /  12.1 °C 29.5in /  998.2hPa ENE 1.8mph /  2.9km/h 3.5mph /  5.6km/h 91% 0in /  0.0mm 76 W/m2
08:14 56.7 °F /  13.7 °C 53.8 °F /  12.1 °C 29.5in /  998.2hPa NE 2.1mph /  3.4km/h 3.5mph /  5.6km/h 90.2% 0in /  0.0mm 132 W/m2
08:19 57.2 °F /  14 °C 54.1 °F /  12.3 °C 29.5in /  998.3hPa NNE 1.9mph /  3.1km/h 4mph /  6.4km/h 89.4% 0in /  0.0mm 132 W/m2
08:24 57.6 °F /  14.2 °C 54.3 °F /  12.4 °C 29.5in /  998.2hPa NE 2.5mph /  4km/h 4mph /  6.4km/h 88.7% 0in /  0.0mm 141 W/m2
08:29 57.7 °F /  14.3 °C 54.3 °F /  12.4 °C 29.5in /  998.3hPa NE 2.8mph /  4.5km/h 4mph /  6.4km/h 88% 0in /  0.0mm 141 W/m2
08:34 57.7 °F /  14.3 °C 54.3 °F /  12.4 °C 29.5in /  998.4hPa NE 2.5mph /  4.1km/h 4mph /  6.4km/h 88% 0in /  0.0mm 114 W/m2
08:39 57.7 °F /  14.3 °C 54.3 °F /  12.4 °C 29.5in /  998.4hPa NE 1.4mph /  2.2km/h 3.5mph /  5.6km/h 88% 0in /  0.0mm 114 W/m2
08:44 58.1 °F /  14.5 °C 54.5 °F /  12.5 °C 29.5in /  998.4hPa NE 1.4mph /  2.2km/h 4mph /  6.4km/h 88% 0in /  0.0mm 113 W/m2
08:49 57.7 °F /  14.3 °C 54.3 °F /  12.4 °C 29.5in /  998.5hPa ENE 2mph /  3.2km/h 4mph /  6.4km/h 88% 0in /  0.0mm 84 W/m2
08:54 57.9 °F /  14.4 °C 54.3 °F /  12.4 °C 29.5in /  998.5hPa ENE 1.6mph /  2.5km/h 3.5mph /  5.6km/h 88% 0in /  0.0mm 84 W/m2
08:59 57.9 °F /  14.4 °C 54.3 °F /  12.4 °C 29.5in /  998.5hPa NE 1.7mph /  2.8km/h 4mph /  6.4km/h 88% 0in /  0.0mm 100 W/m2
09:04 58.1 °F /  14.5 °C 54.7 °F /  12.6 °C 29.5in /  998.4hPa NE 3mph /  4.8km/h 5mph /  8km/h 88% 0in /  0.0mm 113 W/m2
09:09 58.3 °F /  14.6 °C 54.9 °F /  12.7 °C 29.5in /  998.4hPa NNE 2.7mph /  4.4km/h 5mph /  8km/h 88% 0in /  0.0mm 139 W/m2
09:14 58.6 °F /  14.8 °C 55.2 °F /  12.9 °C 29.5in /  998.4hPa NE 2.5mph /  4.1km/h 5mph /  8km/h 88% 0in /  0.0mm 185 W/m2
09:19 58.8 °F /  14.9 °C 55.2 °F /  12.9 °C 29.5in /  998.3hPa NE 2.5mph /  4km/h 4mph /  6.4km/h 88% 0in /  0.0mm 128 W/m2
09:24 59 °F /  15 °C 55.4 °F /  13 °C 29.5in /  998.3hPa ENE 1.8mph /  2.9km/h 3.5mph /  5.6km/h 88% 0in /  0.0mm 127 W/m2
09:29 59.4 °F /  15.2 °C 55.8 °F /  13.2 °C 29.5in /  998.3hPa NE 2mph /  3.2km/h 4mph /  6.4km/h 88% 0in /  0.0mm 134 W/m2
09:34 59.5 °F /  15.3 °C 55.8 °F /  13.2 °C 29.5in /  998.3hPa NE 2.4mph /  3.9km/h 4mph /  6.4km/h 87.2% 0in /  0.0mm 142 W/m2
09:39 59.7 °F /  15.4 °C 55.8 °F /  13.2 °C 29.5in /  998.3hPa NE 2.2mph /  3.5km/h 4mph /  6.4km/h 87% 0in /  0.0mm 165 W/m2
09:44 60.1 °F /  15.6 °C 56.1 °F /  13.4 °C 29.5in /  998.3hPa NE 2.9mph /  4.7km/h 5mph /  8km/h 87% 0in /  0.0mm 258 W/m2
09:49 60.6 °F /  15.9 °C 56.5 °F /  13.6 °C 29.5in /  998.3hPa NE 5.1mph /  8.2km/h 9.2mph /  14.8km/h 86.4% 0in /  0.0mm 457 W/m2
09:54 61.7 °F /  16.5 °C 57.2 °F /  14 °C 29.5in /  998.4hPa NE 4.8mph /  7.8km/h 8.1mph /  13km/h 85% 0in /  0.0mm 482 W/m2
09:59 63 °F /  17.2 °C 57.4 °F /  14.1 °C 29.5in /  998.4hPa NE 5.9mph /  9.5km/h 10.4mph /  16.7km/h 82.3% 0in /  0.0mm 519 W/m2
10:04 63 °F /  17.2 °C 57.4 °F /  14.1 °C 29.5in /  998.5hPa ENE 5.9mph /  9.5km/h 10.4mph /  16.7km/h 82% 0in /  0.0mm 519 W/m2
10:09 62.6 °F /  17 °C 57 °F /  13.9 °C 29.5in /  998.6hPa ENE 6.3mph /  10.2km/h 9.2mph /  14.8km/h 81.7% 0in /  0.0mm 193 W/m2
10:14 62.2 °F /  16.8 °C 56.7 °F /  13.7 °C 29.5in /  998.6hPa ENE 5.4mph /  8.7km/h 9.2mph /  14.8km/h 82.1% 0in /  0.0mm 209 W/m2
10:19 62.4 °F /  16.9 °C 57 °F /  13.9 °C 29.5in /  998.6hPa ENE 4.6mph /  7.4km/h 9mph /  14.5km/h 82.8% 0in /  0.0mm 209 W/m2
10:24 62.6 °F /  17 °C 57.4 °F /  14.1 °C 29.5in /  998.7hPa ENE 3.2mph /  5.2km/h 7mph /  11.3km/h 83% 0in /  0.0mm 325 W/m2
10:29 63.1 °F /  17.3 °C 57.6 °F /  14.2 °C 29.5in /  998.7hPa ENE 5.2mph /  8.4km/h 8.1mph /  13km/h 82% 0in /  0.0mm 325 W/m2
10:34 64 °F /  17.8 °C 58.1 °F /  14.5 °C 29.5in /  998.8hPa NE 5.2mph /  8.4km/h 8.1mph /  13km/h 80.7% 0in /  0.0mm 587 W/m2
10:39 64.8 °F /  18.2 °C 57.9 °F /  14.4 °C 29.5in /  998.9hPa ENE 6mph /  9.6km/h 9.2mph /  14.8km/h 78.4% 0in /  0.0mm 487 W/m2
10:44 64.6 °F /  18.1 °C 57.6 °F /  14.2 °C 29.5in /  998.9hPa ENE 8.2mph /  13.2km/h 13mph /  20.9km/h 77.8% 0in /  0.0mm 464 W/m2
10:49 64 °F /  17.8 °C 57.4 °F /  14.1 °C 29.5in /  998.8hPa ENE 9.8mph /  15.7km/h 13mph /  20.9km/h 78.8% 0in /  0.0mm 367 W/m2
10:54 64.4 °F /  18 °C 57.9 °F /  14.4 °C 29.5in /  998.9hPa ENE 7.2mph /  11.6km/h 13mph /  20.9km/h 79.4% 0in /  0.0mm 577 W/m2
10:59 65.7 °F /  18.7 °C 58.8 °F /  14.9 °C 29.5in /  998.9hPa NE 4.8mph /  7.7km/h 12mph /  19.3km/h 78.4% 0in /  0.0mm 577 W/m2
11:04 66 °F /  18.9 °C 58.6 °F /  14.8 °C 29.5in /  998.8hPa NE 6.8mph /  10.9km/h 12mph /  19.3km/h 77.4% 0in /  0.0mm 492 W/m2
11:09 66 °F /  18.9 °C 58.6 °F /  14.8 °C 29.5in /  998.7hPa ENE 8.3mph /  13.4km/h 12mph /  19.3km/h 77.3% 0in /  0.0mm 534 W/m2
11:14 66.6 °F /  19.2 °C 59.2 °F /  15.1 °C 29.5in /  998.8hPa ENE 6.6mph /  10.7km/h 12mph /  19.3km/h 76.8% 0in /  0.0mm 526 W/m2
11:19 66.9 °F /  19.4 °C 59.4 °F /  15.2 °C 29.5in /  998.8hPa ENE 5.6mph /  9km/h 12mph /  19.3km/h 76.8% 0in /  0.0mm 559 W/m2
11:24 67.3 °F /  19.6 °C 59.4 °F /  15.2 °C 29.5in /  998.8hPa ENE 6.5mph /  10.5km/h 10.4mph /  16.7km/h 75.7% 0in /  0.0mm 608 W/m2
11:29 67.3 °F /  19.6 °C 59.4 °F /  15.2 °C 29.5in /  998.7hPa ENE 6.5mph /  10.5km/h 10mph /  16.1km/h 75.8% 0in /  0.0mm 580 W/m2
11:34 67.5 °F /  19.7 °C 59.5 °F /  15.3 °C 29.5in /  998.6hPa ENE 7mph /  11.3km/h 13mph /  20.9km/h 75.7% 0in /  0.0mm 584 W/m2
11:39 67.6 °F /  19.8 °C 59.7 °F /  15.4 °C 29.5in /  998.6hPa ENE 6.5mph /  10.4km/h 12.7mph /  20.4km/h 75.6% 0in /  0.0mm 601 W/m2
11:44 68.2 °F /  20.1 °C 60.1 °F /  15.6 °C 29.5in /  998.5hPa East 5.2mph /  8.4km/h 13mph /  20.9km/h 75.3% 0in /  0.0mm 601 W/m2
11:49 68.7 °F /  20.4 °C 60.3 °F /  15.7 °C 29.5in /  998.4hPa ENE 7.2mph /  11.6km/h 11.5mph /  18.5km/h 74.2% 0in /  0.0mm 606 W/m2
11:54 69.1 °F /  20.6 °C 60.3 °F /  15.7 °C 29.5in /  998.3hPa ENE 7.5mph /  12km/h 12mph /  19.3km/h 73.5% 0in /  0.0mm 606 W/m2
11:59 69.3 °F /  20.7 °C 60.4 °F /  15.8 °C 29.5in /  998.3hPa East 8.3mph /  13.4km/h 11.5mph /  18.5km/h 73.1% 0in /  0.0mm 615 W/m2
12:04 69.6 °F /  20.9 °C 60.6 °F /  15.9 °C 29.5in /  998.3hPa ENE 8.1mph /  13.1km/h 13mph /  20.9km/h 73% 0in /  0.0mm 617 W/m2
12:09 70 °F /  21.1 °C 60.8 °F /  16 °C 29.5in /  998.3hPa East 7.1mph /  11.5km/h 13mph /  20.9km/h 72.7% 0in /  0.0mm 642 W/m2
12:14 70.3 °F /  21.3 °C 60.6 °F /  15.9 °C 29.5in /  998.4hPa East 8.6mph /  13.9km/h 12mph /  19.3km/h 71.5% 0in /  0.0mm 642 W/m2
12:19 70.3 °F /  21.3 °C 60.1 °F /  15.6 °C 29.5in /  998.4hPa ESE 6.5mph /  10.4km/h 12mph /  19.3km/h 70.1% 0in /  0.0mm 643 W/m2
12:24 70.3 °F /  21.3 °C 60.3 °F /  15.7 °C 29.5in /  998.4hPa East 4.7mph /  7.6km/h 10mph /  16.1km/h 70.3% 0in /  0.0mm 635 W/m2
12:29 70.2 °F /  21.2 °C 60.1 °F /  15.6 °C 29.5in /  998.4hPa East 6.2mph /  9.9km/h 10.4mph /  16.7km/h 70.3% 0in /  0.0mm 635 W/m2
12:34 70.3 °F /  21.3 °C 60.6 °F /  15.9 °C 29.5in /  998.4hPa ESE 6.1mph /  9.8km/h 10.4mph /  16.7km/h 71.2% 0in /  0.0mm 635 W/m2
12:39 70.5 °F /  21.4 °C 60.3 °F /  15.7 °C 29.5in /  998.3hPa East 5.7mph /  9.2km/h 10mph /  16.1km/h 70.2% 0in /  0.0mm 624 W/m2
12:44 70.7 °F /  21.5 °C 60.6 °F /  15.9 °C 29.5in /  998.3hPa ENE 8.1mph /  13km/h 15mph /  24.1km/h 70.2% 0in /  0.0mm 615 W/m2
12:49 71.1 °F /  21.7 °C 60.8 °F /  16 °C 29.5in /  998.2hPa ENE 5.2mph /  8.4km/h 15mph /  24.1km/h 69.9% 0in /  0.0mm 617 W/m2
12:54 71.2 °F /  21.8 °C 60.3 °F /  15.7 °C 29.5in /  998.2hPa East 5.1mph /  8.2km/h 11.5mph /  18.5km/h 68.2% 0in /  0.0mm 693 W/m2
12:59 71.8 °F /  22.1 °C 61 °F /  16.1 °C 29.5in /  998.1hPa ESE 6.3mph /  10.2km/h 12mph /  19.3km/h 69% 0in /  0.0mm 752 W/m2
13:04 72.7 °F /  22.6 °C 61.7 °F /  16.5 °C 29.5in /  998.0hPa East 5.8mph /  9.4km/h 14mph /  22.5km/h 68.5% 0in /  0.0mm 752 W/m2
13:09 72.1 °F /  22.3 °C 60.3 °F /  15.7 °C 29.5in /  998.0hPa East 7.8mph /  12.5km/h 14mph /  22.5km/h 66.2% 0in /  0.0mm 714 W/m2
13:14 72 °F /  22.2 °C 60.4 °F /  15.8 °C 29.5in /  997.9hPa East 5.3mph /  8.5km/h 14mph /  22.5km/h 67.1% 0in /  0.0mm 714 W/m2
13:19 72 °F /  22.2 °C 60.4 °F /  15.8 °C 29.5in /  998.0hPa ENE 6.6mph /  10.6km/h 10.4mph /  16.7km/h 67.4% 0in /  0.0mm 735 W/m2
13:24 72.1 °F /  22.3 °C 60.8 °F /  16 °C 29.5in /  997.9hPa East 6.7mph /  10.8km/h 10.4mph /  16.7km/h 67.3% 0in /  0.0mm 754 W/m2
13:29 72.5 °F /  22.5 °C 60.6 °F /  15.9 °C 29.5in /  997.9hPa ESE 5.3mph /  8.6km/h 10.4mph /  16.7km/h 66.5% 0in /  0.0mm 701 W/m2
13:34 72.3 °F /  22.4 °C 60.3 °F /  15.7 °C 29.5in /  997.9hPa ESE 4.5mph /  7.3km/h 9mph /  14.5km/h 66.2% 0in /  0.0mm 311 W/m2
13:39 71.4 °F /  21.9 °C 58.6 °F /  14.8 °C 29.5in /  997.9hPa SE 4mph /  6.5km/h 8mph /  12.9km/h 64.1% 0in /  0.0mm 278 W/m2
13:44 71.2 °F /  21.8 °C 59.4 °F /  15.2 °C 29.5in /  998.0hPa ESE 3.1mph /  5km/h 8.1mph /  13km/h 66.1% 0in /  0.0mm 260 W/m2
13:49 71.4 °F /  21.9 °C 59.2 °F /  15.1 °C 29.5in /  997.9hPa ESE 5mph /  8.1km/h 8.1mph /  13km/h 65.3% 0in /  0.0mm 257 W/m2
13:54 71.4 °F /  21.9 °C 59 °F /  15 °C 29.5in /  998.0hPa ESE 4.5mph /  7.3km/h 8.1mph /  13km/h 64.7% 0in /  0.0mm 251 W/m2
13:59 71.4 °F /  21.9 °C 58.3 °F /  14.6 °C 29.5in /  997.9hPa ESE 5.1mph /  8.2km/h 7mph /  11.3km/h 63.3% 0in /  0.0mm 345 W/m2
14:04 72.1 °F /  22.3 °C 58.8 °F /  14.9 °C 29.5in /  997.9hPa ESE 3.5mph /  5.6km/h 7mph /  11.3km/h 62.9% 0in /  0.0mm 591 W/m2
14:09 72.7 °F /  22.6 °C 58.5 °F /  14.7 °C 29.5in /  997.7hPa South 3.2mph /  5.1km/h 6mph /  9.7km/h 60.8% 0in /  0.0mm 865 W/m2
14:14 74.1 °F /  23.4 °C 59 °F /  15 °C 29.5in /  997.6hPa SSE 4.1mph /  6.6km/h 14mph /  22.5km/h 59.4% 0in /  0.0mm 865 W/m2
14:19 74.3 °F /  23.5 °C 59 °F /  15 °C 29.5in /  997.6hPa South 6.7mph /  10.8km/h 14mph /  22.5km/h 58.8% 0in /  0.0mm 784 W/m2
14:24 74.1 °F /  23.4 °C 59.2 °F /  15.1 °C 29.5in /  997.5hPa SE 6mph /  9.6km/h 14mph /  22.5km/h 59.6% 0in /  0.0mm 487 W/m2
14:29 73.2 °F /  22.9 °C 58.6 °F /  14.8 °C 29.5in /  997.5hPa SE 5.2mph /  8.4km/h 10mph /  16.1km/h 60.2% 0in /  0.0mm 174 W/m2
14:34 72.5 °F /  22.5 °C 58.1 °F /  14.5 °C 29.5in /  997.5hPa SSE 5.1mph /  8.2km/h 12mph /  19.3km/h 60.6% 0in /  0.0mm 151 W/m2
14:39 72.3 °F /  22.4 °C 58.1 °F /  14.5 °C 29.5in /  997.4hPa SE 3.7mph /  5.9km/h 12mph /  19.3km/h 61% 0in /  0.0mm 188 W/m2
14:44 72.5 °F /  22.5 °C 57.7 °F /  14.3 °C 29.5in /  997.4hPa SSE 3.7mph /  6km/h 11mph /  17.7km/h 60% 0in /  0.0mm 241 W/m2
14:49 73 °F /  22.8 °C 57.9 °F /  14.4 °C 29.5in /  997.3hPa SE 5.7mph /  9.2km/h 12mph /  19.3km/h 59% 0in /  0.0mm 327 W/m2
14:54 73.4 °F /  23 °C 57.7 °F /  14.3 °C 29.5in /  997.3hPa SE 5.7mph /  9.2km/h 12mph /  19.3km/h 57.8% 0in /  0.0mm 418 W/m2
14:59 73.8 °F /  23.2 °C 57.7 °F /  14.3 °C 29.4in /  997.1hPa South 3.2mph /  5.2km/h 9.2mph /  14.8km/h 57.4% 0in /  0.0mm 336 W/m2
15:04 73.9 °F /  23.3 °C 56.8 °F /  13.8 °C 29.5in /  997.2hPa South 6.5mph /  10.4km/h 14mph /  22.5km/h 55.5% 0in /  0.0mm 357 W/m2
15:09 73.9 °F /  23.3 °C 56.1 °F /  13.4 °C 29.4in /  997.1hPa South 9.5mph /  15.3km/h 14mph /  22.5km/h 53.7% 0in /  0.0mm 346 W/m2
15:14 73.9 °F /  23.3 °C 55.9 °F /  13.3 °C 29.4in /  997.0hPa SSW 9.1mph /  14.7km/h 15mph /  24.1km/h 53.4% 0in /  0.0mm 325 W/m2
15:19 73.9 °F /  23.3 °C 55.9 °F /  13.3 °C 29.4in /  997.0hPa South 7.6mph /  12.3km/h 16mph /  25.7km/h 53.3% 0in /  0.0mm 309 W/m2
15:24 73.8 °F /  23.2 °C 55.6 °F /  13.1 °C 29.4in /  997.0hPa SSW 9.1mph /  14.6km/h 16.1mph /  25.9km/h 52.8% 0in /  0.0mm 206 W/m2
15:29 73.8 °F /  23.2 °C 55.6 °F /  13.1 °C 29.4in /  997.0hPa SSW 8.6mph /  13.9km/h 16mph /  25.7km/h 53% 0in /  0.0mm 193 W/m2
15:30 73.8 °F /  23.2 °C 55.9 °F /  13.3 °C 29.4in /  996.9hPa SSW 7.7mph /  12.4km/h 11.5mph /  18.5km/h 54% 0in /  0.0mm 209 W/m2
15:39 73.9 °F /  23.3 °C 55.4 °F /  13 °C 29.4in /  996.9hPa South 7.5mph /  12km/h 13mph /  20.9km/h 52.4% 0in /  0.0mm 475 W/m2
15:44 74.3 °F /  23.5 °C 54.7 °F /  12.6 °C 29.4in /  996.8hPa South 6mph /  9.7km/h 13mph /  20.9km/h 50.6% 0in /  0.0mm 320 W/m2
15:49 74.1 °F /  23.4 °C 54.9 °F /  12.7 °C 29.4in /  996.8hPa South 6mph /  9.6km/h 13mph /  20.9km/h 51.1% 0in /  0.0mm 466 W/m2
15:54 74.5 °F /  23.6 °C 55.4 °F /  13 °C 29.4in /  996.8hPa SSW 6.5mph /  10.4km/h 13mph /  20.9km/h 51.6% 0in /  0.0mm 466 W/m2
15:59 75 °F /  23.9 °C 55 °F /  12.8 °C 29.4in /  996.8hPa SSW 7.5mph /  12km/h 14mph /  22.5km/h 49.8% 0in /  0.0mm 557 W/m2
16:04 75.6 °F /  24.2 °C 54 °F /  12.2 °C 29.4in /  996.8hPa South 10.4mph /  16.8km/h 17.3mph /  27.8km/h 47.2% 0in /  0.0mm 557 W/m2
16:09 75.6 °F /  24.2 °C 54.3 °F /  12.4 °C 29.4in /  996.9hPa SW 11.7mph /  18.8km/h 18.4mph /  29.6km/h 47.6% 0in /  0.0mm 533 W/m2
16:14 74.8 °F /  23.8 °C 54.3 °F /  12.4 °C 29.4in /  997.0hPa SSW 11.8mph /  19km/h 18.4mph /  29.6km/h 48.9% 0in /  0.0mm 541 W/m2
16:19 75.4 °F /  24.1 °C 54.7 °F /  12.6 °C 29.4in /  997.0hPa SSW 10mph /  16.1km/h 19mph /  30.6km/h 48.7% 0in /  0.0mm 519 W/m2
16:24 75.4 °F /  24.1 °C 54.7 °F /  12.6 °C 29.4in /  997.0hPa South 9.1mph /  14.7km/h 20mph /  32.2km/h 48.6% 0in /  0.0mm 466 W/m2
16:29 75.4 °F /  24.1 °C 54.9 °F /  12.7 °C 29.4in /  997.1hPa SSW 8.8mph /  14.2km/h 21mph /  33.8km/h 49.1% 0in /  0.0mm 504 W/m2
16:34 75.4 °F /  24.1 °C 54.9 °F /  12.7 °C 29.4in /  997.1hPa SSW 11.7mph /  18.9km/h 21mph /  33.8km/h 48.9% 0in /  0.0mm 504 W/m2
16:39 75.2 °F /  24 °C 54.1 °F /  12.3 °C 29.5in /  997.2hPa South 11.6mph /  18.6km/h 21mph /  33.8km/h 48% 0in /  0.0mm 445 W/m2
16:44 75 °F /  23.9 °C 54.5 °F /  12.5 °C 29.5in /  997.2hPa SSW 10.6mph /  17km/h 21mph /  33.8km/h 48.8% 0in /  0.0mm 466 W/m2
16:49 75.2 °F /  24 °C 54.3 °F /  12.4 °C 29.5in /  997.2hPa South 10.4mph /  16.8km/h 21mph /  33.8km/h 48.2% 0in /  0.0mm 441 W/m2
16:54 75.4 °F /  24.1 °C 52.7 °F /  11.5 °C 29.5in /  997.2hPa SSW 12.9mph /  20.7km/h 23mph /  37km/h 45.1% 0in /  0.0mm 397 W/m2
16:59 75.2 °F /  24 °C 52.5 °F /  11.4 °C 29.5in /  997.2hPa SW 9.8mph /  15.8km/h 23mph /  37km/h 45.3% 0in /  0.0mm 352 W/m2
17:04 75 °F /  23.9 °C 52.2 °F /  11.2 °C 29.5in /  997.3hPa SW 10.1mph /  16.3km/h 17mph /  27.4km/h 45% 0in /  0.0mm 327 W/m2
17:09 74.7 °F /  23.7 °C 52.3 °F /  11.3 °C 29.5in /  997.3hPa SSW 10.9mph /  17.5km/h 18.4mph /  29.6km/h 45.9% 0in /  0.0mm 309 W/m2
17:14 74.5 °F /  23.6 °C 52.3 °F /  11.3 °C 29.5in /  997.3hPa SSW 12.8mph /  20.6km/h 19.6mph /  31.5km/h 46% 0in /  0.0mm 306 W/m2
17:19 73.9 °F /  23.3 °C 52.2 °F /  11.2 °C 29.5in /  997.4hPa SW 11.4mph /  18.3km/h 20mph /  32.2km/h 46.7% 0in /  0.0mm 102 W/m2
17:24 73.4 °F /  23 °C 52.3 °F /  11.3 °C 29.5in /  997.4hPa SSW 8.1mph /  13km/h 15mph /  24.1km/h 47.8% 0in /  0.0mm 195 W/m2
17:29 73.6 °F /  23.1 °C 52.2 °F /  11.2 °C 29.5in /  997.5hPa SSW 8.2mph /  13.2km/h 16.1mph /  25.9km/h 47% 0in /  0.0mm 190 W/m2
17:34 73.4 °F /  23 °C 52.2 °F /  11.2 °C 29.5in /  997.6hPa SW 9.3mph /  14.9km/h 16.1mph /  25.9km/h 47.4% 0in /  0.0mm 137 W/m2
17:39 73.2 °F /  22.9 °C 52 °F /  11.1 °C 29.5in /  997.6hPa SSW 8.7mph /  14km/h 13mph /  20.9km/h 47.3% 0in /  0.0mm 141 W/m2
17:44 73 °F /  22.8 °C 52.2 °F /  11.2 °C 29.5in /  997.7hPa SSW 7.2mph /  11.6km/h 13mph /  20.9km/h 48.2% 0in /  0.0mm 95 W/m2
17:49 72.7 °F /  22.6 °C 52.7 °F /  11.5 °C 29.5in /  997.7hPa SW 7.6mph /  12.3km/h 12mph /  19.3km/h 49.4% 0in /  0.0mm 83 W/m2
17:54 72.5 °F /  22.5 °C 53.1 °F /  11.7 °C 29.5in /  997.7hPa SW 6.2mph /  9.9km/h 12mph /  19.3km/h 50.4% 0in /  0.0mm 79 W/m2
17:59 72.3 °F /  22.4 °C 53.1 °F /  11.7 °C 29.5in /  997.8hPa SSW 6.1mph /  9.8km/h 9.2mph /  14.8km/h 50.8% 0in /  0.0mm 72 W/m2
18:04 72.1 °F /  22.3 °C 53.1 °F /  11.7 °C 29.5in /  997.8hPa SSW 5.8mph /  9.3km/h 11mph /  17.7km/h 51% 0in /  0.0mm 51 W/m2
18:09 72 °F /  22.2 °C 52.7 °F /  11.5 °C 29.5in /  997.8hPa SW 6.3mph /  10.2km/h 11mph /  17.7km/h 50.8% 0in /  0.0mm 37 W/m2
18:14 71.8 °F /  22.1 °C 52.3 °F /  11.3 °C 29.5in /  997.8hPa SW 5.3mph /  8.6km/h 9.2mph /  14.8km/h 50.3% 0in /  0.0mm 32 W/m2
18:19 71.4 °F /  21.9 °C 52 °F /  11.1 °C 29.5in /  997.9hPa WSW 5.3mph /  8.5km/h 8.1mph /  13km/h 50.1% 0in /  0.0mm 32 W/m2
18:24 70.2 °F /  21.2 °C 55.4 °F /  13 °C 29.5in /  997.9hPa North 5.7mph /  9.1km/h 9.2mph /  14.8km/h 59.5% 0in /  0.0mm 30 W/m2
18:29 67.5 °F /  19.7 °C 56.7 °F /  13.7 °C 29.5in /  998.0hPa NE 4mph /  6.4km/h 9.2mph /  14.8km/h 68.2% 0in /  0.0mm 25 W/m2
18:34 66 °F /  18.9 °C 56.7 °F /  13.7 °C 29.5in /  998.0hPa East 3.7mph /  6km/h 7mph /  11.3km/h 71.7% 0in /  0.0mm 23 W/m2
18:39 65.1 °F /  18.4 °C 56.5 °F /  13.6 °C 29.5in /  998.0hPa NE 5.2mph /  8.4km/h 9.2mph /  14.8km/h 73.8% 0in /  0.0mm 19 W/m2
18:44 64.8 °F /  18.2 °C 56.7 °F /  13.7 °C 29.5in /  998.1hPa North 4.5mph /  7.2km/h 9.2mph /  14.8km/h 75.3% 0in /  0.0mm 16 W/m2
18:49 64.4 °F /  18 °C 56.8 °F /  13.8 °C 29.5in /  998.1hPa NNE 3.4mph /  5.5km/h 7mph /  11.3km/h 76.4% 0in /  0.0mm 12 W/m2
18:54 64 °F /  17.8 °C 57 °F /  13.9 °C 29.5in /  998.1hPa NNE 4.1mph /  6.6km/h 8mph /  12.9km/h 77.8% 0in /  0.0mm 7 W/m2
18:59 63.7 °F /  17.6 °C 56.8 °F /  13.8 °C 29.5in /  998.1hPa NNE 5.5mph /  8.8km/h 9mph /  14.5km/h 78.5% 0in /  0.0mm 5 W/m2
19:04 63.1 °F /  17.3 °C 56.8 °F /  13.8 °C 29.5in /  998.1hPa NE 6.3mph /  10.1km/h 9.2mph /  14.8km/h 79.9% 0in /  0.0mm 0 W/m2
19:09 63 °F /  17.2 °C 56.7 °F /  13.7 °C 29.5in /  998.1hPa NE 4.2mph /  6.8km/h 9.2mph /  14.8km/h 80% 0in /  0.0mm 0 W/m2
19:14 62.8 °F /  17.1 °C 56.5 °F /  13.6 °C 29.5in /  998.4hPa NNE 2.7mph /  4.4km/h 9mph /  14.5km/h 80% 0in /  0.0mm 0 W/m2
19:19 62.8 °F /  17.1 °C 56.7 °F /  13.7 °C 29.5in /  998.4hPa WSW 2.3mph /  3.7km/h 4mph /  6.4km/h 80.4% 0in /  0.0mm 0 W/m2
19:24 62.4 °F /  16.9 °C 56.1 °F /  13.4 °C 29.5in /  998.4hPa NNE 3mph /  4.9km/h 7mph /  11.3km/h 80% 0in /  0.0mm 0 W/m2
19:29 62.2 °F /  16.8 °C 56.1 °F /  13.4 °C 29.5in /  998.4hPa NE 4.2mph /  6.7km/h 7mph /  11.3km/h 80% 0in /  0.0mm 0 W/m2
19:33 62.2 °F /  16.8 °C 55.9 °F /  13.3 °C 29.5in /  998.4hPa NE 4.5mph /  7.3km/h 10mph /  16.1km/h 80% 0in /  0.0mm 0 W/m2
19:39 62.1 °F /  16.7 °C 55.9 °F /  13.3 °C 29.5in /  998.8hPa NE 4.7mph /  7.6km/h 9.2mph /  14.8km/h 80% 0in /  0.0mm 0 W/m2
19:44 61.9 °F /  16.6 °C 55.8 °F /  13.2 °C 29.5in /  998.8hPa ENE 4mph /  6.4km/h 9.2mph /  14.8km/h 80% 0in /  0.0mm 0 W/m2
19:49 61.7 °F /  16.5 °C 55.8 °F /  13.2 °C 29.5in /  998.9hPa ENE 3.5mph /  5.6km/h 9mph /  14.5km/h 80.6% 0in /  0.0mm 0 W/m2
19:54 61.7 °F /  16.5 °C 55.6 °F /  13.1 °C 29.5in /  998.9hPa East 3.8mph /  6.1km/h 7mph /  11.3km/h 80.6% 0in /  0.0mm 0 W/m2
19:59 61.5 °F /  16.4 °C 55.6 °F /  13.1 °C 29.5in /  999.0hPa East 2.7mph /  4.4km/h 6mph /  9.7km/h 81% 0in /  0.0mm 0 W/m2
20:04 61.3 °F /  16.3 °C 55.4 °F /  13 °C 29.5in /  999.0hPa ENE 2.5mph /  4km/h 5mph /  8km/h 81% 0in /  0.0mm 0 W/m2
20:09 61.2 °F /  16.2 °C 55.2 °F /  12.9 °C 29.5in /  999.0hPa NE 2.4mph /  3.9km/h 4mph /  6.4km/h 81% 0in /  0.0mm 0 W/m2
20:14 61 °F /  16.1 °C 55.4 °F /  13 °C 29.5in /  999.1hPa NNE 2.7mph /  4.4km/h 4mph /  6.4km/h 81.9% 0in /  0.0mm 0 W/m2
20:19 61 °F /  16.1 °C 55.6 °F /  13.1 °C 29.5in /  999.1hPa NE 3.4mph /  5.4km/h 4mph /  6.4km/h 82% 0in /  0.0mm 0 W/m2
20:24 60.8 °F /  16 °C 55.4 °F /  13 °C 29.5in /  999.1hPa NE 2.8mph /  4.5km/h 4mph /  6.4km/h 82% 0in /  0.0mm 0 W/m2
20:29 60.8 °F /  16 °C 55.2 °F /  12.9 °C 29.5in /  999.1hPa NE 2.8mph /  4.5km/h 5mph /  8km/h 82% 0in /  0.0mm 0 W/m2
20:34 60.8 °F /  16 °C 55.2 °F /  12.9 °C 29.5in /  999.2hPa NNE 3.4mph /  5.5km/h 5mph /  8km/h 82% 0in /  0.0mm 0 W/m2
20:39 60.8 °F /  16 °C 55.2 °F /  12.9 °C 29.5in /  999.3hPa North 3.5mph /  5.6km/h 5mph /  8km/h 82% 0in /  0.0mm 0 W/m2
20:44 61 °F /  16.1 °C 55.4 °F /  13 °C 29.5in /  999.4hPa North 2.7mph /  4.3km/h 5mph /  8km/h 82% 0in /  0.0mm 0 W/m2
20:49 61 °F /  16.1 °C 55.4 °F /  13 °C 29.5in /  999.4hPa NNE 1.7mph /  2.7km/h 3.5mph /  5.6km/h 82% 0in /  0.0mm 0 W/m2
20:54 60.6 °F /  15.9 °C 55.2 °F /  12.9 °C 29.5in /  999.4hPa ENE 2.2mph /  3.5km/h 4mph /  6.4km/h 82.7% 0in /  0.0mm 0 W/m2
20:59 60.3 °F /  15.7 °C 55 °F /  12.8 °C 29.5in /  999.4hPa ENE 3.4mph /  5.5km/h 5mph /  8km/h 83% 0in /  0.0mm 0 W/m2
21:04 60.3 °F /  15.7 °C 55 °F /  12.8 °C 29.5in /  999.4hPa ENE 2.7mph /  4.3km/h 5mph /  8km/h 83% 0in /  0.0mm 0 W/m2
21:09 60.4 °F /  15.8 °C 55.2 °F /  12.9 °C 29.5in /  999.5hPa NE 0.7mph /  1.2km/h 5mph /  8km/h 83% 0in /  0.0mm 0 W/m2
21:14 60.3 °F /  15.7 °C 55 °F /  12.8 °C 29.5in /  999.5hPa Calm   2mph /  3.2km/h 83% 0in /  0.0mm 0 W/m2
21:19 60.1 °F /  15.6 °C 55 °F /  12.8 °C 29.5in /  999.5hPa ENE 0.1mph /  0.2km/h 1.2mph /  1.9km/h 83.6% 0in /  0.0mm 0 W/m2
21:24 59.7 °F /  15.4 °C 55 °F /  12.8 °C 29.5in /  999.5hPa ENE 1.1mph /  1.8km/h 2.3mph /  3.7km/h 84% 0in /  0.0mm 0 W/m2
21:29 59.5 °F /  15.3 °C 54.9 °F /  12.7 °C 29.5in /  999.6hPa ENE 1.4mph /  2.2km/h 2.3mph /  3.7km/h 84.5% 0in /  0.0mm 0 W/m2
21:34 59.2 °F /  15.1 °C 54.9 °F /  12.7 °C 29.5in /  999.7hPa ENE 1.4mph /  2.3km/h 2.3mph /  3.7km/h 85.4% 0in /  0.0mm 0 W/m2
21:39 58.8 °F /  14.9 °C 54.7 °F /  12.6 °C 29.5in /  999.7hPa ENE 1.7mph /  2.7km/h 4mph /  6.4km/h 86% 0in /  0.0mm 0 W/m2
21:44 58.6 °F /  14.8 °C 54.5 °F /  12.5 °C 29.5in /  999.7hPa ENE 2.6mph /  4.2km/h 4mph /  6.4km/h 86.2% 0in /  0.0mm 0 W/m2
21:49 58.8 °F /  14.9 °C 54.7 °F /  12.6 °C 29.5in /  999.7hPa ENE 2.5mph /  4km/h 4mph /  6.4km/h 86.4% 0in /  0.0mm 0 W/m2
21:54 59 °F /  15 °C 54.9 °F /  12.7 °C 29.5in /  999.7hPa NE 1.6mph /  2.6km/h 3.5mph /  5.6km/h 86% 0in /  0.0mm 0 W/m2
21:59 59 °F /  15 °C 54.9 °F /  12.7 °C 29.5in /  999.7hPa East 1.5mph /  2.4km/h 3mph /  4.8km/h 86% 0in /  0.0mm 0 W/m2
22:04 59 °F /  15 °C 54.9 °F /  12.7 °C 29.5in /  999.7hPa East 2.5mph /  4km/h 5mph /  8km/h 86% 0in /  0.0mm 0 W/m2
22:09 59 °F /  15 °C 54.9 °F /  12.7 °C 29.5in /  999.8hPa East 2.7mph /  4.4km/h 5mph /  8km/h 86% 0in /  0.0mm 0 W/m2
22:14 59 °F /  15 °C 54.9 °F /  12.7 °C 29.5in /  999.8hPa East 1.1mph /  1.7km/h 3.5mph /  5.6km/h 86% 0in /  0.0mm 0 W/m2
22:19 59 °F /  15 °C 54.9 °F /  12.7 °C 29.5in /  999.9hPa ENE 0.6mph /  0.9km/h 3.5mph /  5.6km/h 86% 0in /  0.0mm 0 W/m2
22:24 58.8 °F /  14.9 °C 54.9 °F /  12.7 °C 29.5in /  999.9hPa NE 1.7mph /  2.7km/h 3.5mph /  5.6km/h 86.6% 0in /  0.0mm 0 W/m2
22:29 58.8 °F /  14.9 °C 55 °F /  12.8 °C 29.5in /  1000.0hPa NE 1.7mph /  2.7km/h 4mph /  6.4km/h 87% 0in /  0.0mm 0 W/m2
22:34 59 °F /  15 °C 55 °F /  12.8 °C 29.5in /  1000.1hPa ENE 2.2mph /  3.6km/h 4mph /  6.4km/h 87% 0in /  0.0mm 0 W/m2
22:39 59 °F /  15 °C 55 °F /  12.8 °C 29.5in /  1000.2hPa NE 1.4mph /  2.3km/h 3.5mph /  5.6km/h 87% 0in /  0.0mm 0 W/m2
22:44 59.2 °F /  15.1 °C 55.2 °F /  12.9 °C 29.5in /  1000.3hPa NE 0.3mph /  0.5km/h 3mph /  4.8km/h 86.6% 0in /  0.0mm 0 W/m2
22:49 59.2 °F /  15.1 °C 55 °F /  12.8 °C 29.5in /  1000.4hPa NE 0.7mph /  1.2km/h 2.3mph /  3.7km/h 86.1% 0in /  0.0mm 0 W/m2
22:54 58.8 °F /  14.9 °C 55 °F /  12.8 °C 29.5in /  1000.4hPa NE 1.2mph /  1.9km/h 2.3mph /  3.7km/h 87% 0in /  0.0mm 0 W/m2
22:59 58.6 °F /  14.8 °C 54.9 °F /  12.7 °C 29.5in /  1000.5hPa NE 0.9mph /  1.4km/h 2.3mph /  3.7km/h 87% 0in /  0.0mm 0 W/m2
23:04 58.6 °F /  14.8 °C 54.9 °F /  12.7 °C 29.6in /  1000.8hPa NNW 1.9mph /  3km/h 9.2mph /  14.8km/h 87% 0in /  0.0mm 0 W/m2
23:09 58.8 °F /  14.9 °C 54.9 °F /  12.7 °C 29.6in /  1000.8hPa North 4.2mph /  6.8km/h 9.2mph /  14.8km/h 87% 0in /  0.0mm 0 W/m2
23:14 59.2 °F /  15.1 °C 55.2 °F /  12.9 °C 29.6in /  1001.0hPa NNW 4.1mph /  6.6km/h 9mph /  14.5km/h 86.9% 0in /  0.0mm 0 W/m2
23:19 59.4 °F /  15.2 °C 55.2 °F /  12.9 °C 29.6in /  1001.0hPa North 5.5mph /  8.8km/h 9.2mph /  14.8km/h 86% 0in /  0.0mm 0 W/m2
23:24 59.4 °F /  15.2 °C 55.2 °F /  12.9 °C 29.6in /  1001.1hPa NNE 4.8mph /  7.8km/h 9.2mph /  14.8km/h 86% 0in /  0.0mm 0 W/m2
23:29 59.4 °F /  15.2 °C 55.2 °F /  12.9 °C 29.6in /  1001.0hPa North 3.9mph /  6.2km/h 9mph /  14.5km/h 86% 0in /  0.0mm 0 W/m2
23:34 59.4 °F /  15.2 °C 55.2 °F /  12.9 °C 29.6in /  1001.1hPa NNE 4.1mph /  6.6km/h 8mph /  12.9km/h 86% 0in /  0.0mm 0 W/m2
23:39 59.4 °F /  15.2 °C 55.2 °F /  12.9 °C 29.6in /  1001.1hPa NNE 4.4mph /  7.1km/h 8.1mph /  13km/h 86% 0in /  0.0mm 0 W/m2
23:44 59.4 °F /  15.2 °C 55.2 °F /  12.9 °C 29.6in /  1001.2hPa NNE 4.7mph /  7.6km/h 10.4mph /  16.7km/h 86% 0in /  0.0mm 0 W/m2
23:49 59.5 °F /  15.3 °C 55 °F /  12.8 °C 29.6in /  1001.3hPa NNE 5.3mph /  8.6km/h 10.4mph /  16.7km/h 84.9% 0in /  0.0mm 0 W/m2
23:54 59.5 °F /  15.3 °C 54.5 °F /  12.5 °C 29.6in /  1001.5hPa NNE 4.2mph /  6.7km/h 10mph /  16.1km/h 83.6% 0in /  0.0mm 0 W/m2
23:59 59.4 °F /  15.2 °C 54.1 °F /  12.3 °C 29.6in /  1001.6hPa NNE 3.2mph /  5.2km/h 7mph /  11.3km/h 83% 0in /  0.0mm 0 W/m2
Stazione Meteorologica MeteoMincio Rivalta s/M (MN)
Con i complimenti di Weather Underground - 4 mb


METEO PILLOLE
La più intensa nevicata in 24 ore
Silverlake nel Colorado - USA
Il 14 aprile 1921 caddero 193 cm di neve. C'è anche un dato, ma non è ufficiale di: Roccacaramanico (1050m), Abruzzo, Italia. Il 17 dicembre del 1961, caddero 340 cm di neve.Il centro abitato si trova a 1050 m, in un imbuto naturale tra il monte Morrone (2061 m) ed il Massiccio della Majella (2793 m) che riceve fortissime precipitazioni da stau con venti settentrionali ed orientali.

Do NOT follow this link or you will be banned from the site!